<?xml version="1.0" encoding="UTF-8"?>
<gpx version="1.1" creator="https://www.youtrack.es" xsi:schemaLocation="http://www.topografix.com/GPX/1/1 http://www.topografix.com/GPX/1/1/gpx.xsd http://www.garmin.com/xmlschemas/GpxExtensions/v3 http://www.garmin.com/xmlschemas/GpxExtensionsv3.xsd http://www.garmin.com/xmlschemas/TrackPointExtension/v1 http://www.garmin.com/xmlschemas/TrackPointExtensionv1.xsd" xmlns:gpxtpx="http://www.garmin.com/xmlschemas/TrackPointExtension/v1" xmlns:gpxx="http://www.garmin.com/xmlschemas/GpxExtensions/v3" xmlns:xsi="http://www.w3.org/2001/XMLSchema-instance">
  <metadata>
    <link href="https://www.youtrack.es">
      <text>YouTrack.es</text>
    </link>
    <time>2026-05-08T08:52:57Z</time>
  </metadata>
  <trk>
    <src>https://www.youtrack.es</src>
    <link href="https://www.youtrack.es/ruta/14036-sunset-costa-brava">
      <text>YouTrack.es</text>
    </link>
    <trkseg>
      <trkpt lat="41.863570" lon="3.136450">
        <ele>17.772</ele>
        <time>2020-07-07T19:23:01Z</time>
      </trkpt>
      <trkpt lat="41.863660" lon="3.136270">
        <ele>17.213</ele>
        <time>2020-07-07T19:23:11Z</time>
      </trkpt>
      <trkpt lat="41.864110" lon="3.136770">
        <ele>16.114</ele>
        <time>2020-07-07T19:23:21Z</time>
      </trkpt>
      <trkpt lat="41.864610" lon="3.136790">
        <ele>16.208</ele>
        <time>2020-07-07T19:23:31Z</time>
      </trkpt>
      <trkpt lat="41.864820" lon="3.137050">
        <ele>17.162</ele>
        <time>2020-07-07T19:23:41Z</time>
      </trkpt>
      <trkpt lat="41.865110" lon="3.137110">
        <ele>15.429</ele>
        <time>2020-07-07T19:23:51Z</time>
      </trkpt>
      <trkpt lat="41.866130" lon="3.138120">
        <ele>12.240</ele>
        <time>2020-07-07T19:24:01Z</time>
      </trkpt>
      <trkpt lat="41.867430" lon="3.139020">
        <ele>13.491</ele>
        <time>2020-07-07T19:24:11Z</time>
      </trkpt>
      <trkpt lat="41.870390" lon="3.140110">
        <ele>14.044</ele>
        <time>2020-07-07T19:24:21Z</time>
      </trkpt>
      <trkpt lat="41.870980" lon="3.140900">
        <ele>14.296</ele>
        <time>2020-07-07T19:24:31Z</time>
      </trkpt>
      <trkpt lat="41.871320" lon="3.140830">
        <ele>14.824</ele>
        <time>2020-07-07T19:24:41Z</time>
      </trkpt>
      <trkpt lat="41.872430" lon="3.141450">
        <ele>15.522</ele>
        <time>2020-07-07T19:24:51Z</time>
      </trkpt>
      <trkpt lat="41.873800" lon="3.141200">
        <ele>15.592</ele>
        <time>2020-07-07T19:25:01Z</time>
      </trkpt>
      <trkpt lat="41.874700" lon="3.141280">
        <ele>19.973</ele>
        <time>2020-07-07T19:25:11Z</time>
      </trkpt>
      <trkpt lat="41.876470" lon="3.140600">
        <ele>20.320</ele>
        <time>2020-07-07T19:25:21Z</time>
      </trkpt>
      <trkpt lat="41.876370" lon="3.140340">
        <ele>19.908</ele>
        <time>2020-07-07T19:25:31Z</time>
      </trkpt>
      <trkpt lat="41.876530" lon="3.138450">
        <ele>18.824</ele>
        <time>2020-07-07T19:25:41Z</time>
      </trkpt>
      <trkpt lat="41.876830" lon="3.138380">
        <ele>20.661</ele>
        <time>2020-07-07T19:25:51Z</time>
      </trkpt>
      <trkpt lat="41.877000" lon="3.136670">
        <ele>34.882</ele>
        <time>2020-07-07T19:26:01Z</time>
      </trkpt>
      <trkpt lat="41.877810" lon="3.135310">
        <ele>43.293</ele>
        <time>2020-07-07T19:26:11Z</time>
      </trkpt>
      <trkpt lat="41.878260" lon="3.133640">
        <ele>49.996</ele>
        <time>2020-07-07T19:26:21Z</time>
      </trkpt>
      <trkpt lat="41.878320" lon="3.133970">
        <ele>51.658</ele>
        <time>2020-07-07T19:26:31Z</time>
      </trkpt>
      <trkpt lat="41.879310" lon="3.134700">
        <ele>51.446</ele>
        <time>2020-07-07T19:26:41Z</time>
      </trkpt>
      <trkpt lat="41.880100" lon="3.135790">
        <ele>55.474</ele>
        <time>2020-07-07T19:26:51Z</time>
      </trkpt>
      <trkpt lat="41.880360" lon="3.135930">
        <ele>58.331</ele>
        <time>2020-07-07T19:27:01Z</time>
      </trkpt>
      <trkpt lat="41.880690" lon="3.135880">
        <ele>64.761</ele>
        <time>2020-07-07T19:27:11Z</time>
      </trkpt>
      <trkpt lat="41.880950" lon="3.136100">
        <ele>65.307</ele>
        <time>2020-07-07T19:27:21Z</time>
      </trkpt>
      <trkpt lat="41.881520" lon="3.135830">
        <ele>70.108</ele>
        <time>2020-07-07T19:27:31Z</time>
      </trkpt>
      <trkpt lat="41.882970" lon="3.134230">
        <ele>65.968</ele>
        <time>2020-07-07T19:27:41Z</time>
      </trkpt>
      <trkpt lat="41.884030" lon="3.133390">
        <ele>62.085</ele>
        <time>2020-07-07T19:27:51Z</time>
      </trkpt>
      <trkpt lat="41.885200" lon="3.132850">
        <ele>65.926</ele>
        <time>2020-07-07T19:28:01Z</time>
      </trkpt>
      <trkpt lat="41.886060" lon="3.134650">
        <ele>54.957</ele>
        <time>2020-07-07T19:28:11Z</time>
      </trkpt>
      <trkpt lat="41.885350" lon="3.136320">
        <ele>44.570</ele>
        <time>2020-07-07T19:28:21Z</time>
      </trkpt>
      <trkpt lat="41.885900" lon="3.137900">
        <ele>55.052</ele>
        <time>2020-07-07T19:28:31Z</time>
      </trkpt>
      <trkpt lat="41.885650" lon="3.138850">
        <ele>49.770</ele>
        <time>2020-07-07T19:28:41Z</time>
      </trkpt>
      <trkpt lat="41.885540" lon="3.141290">
        <ele>54.338</ele>
        <time>2020-07-07T19:28:51Z</time>
      </trkpt>
      <trkpt lat="41.886490" lon="3.142020">
        <ele>53.433</ele>
        <time>2020-07-07T19:29:01Z</time>
      </trkpt>
      <trkpt lat="41.888140" lon="3.142510">
        <ele>42.423</ele>
        <time>2020-07-07T19:29:11Z</time>
      </trkpt>
      <trkpt lat="41.889830" lon="3.142630">
        <ele>37.415</ele>
        <time>2020-07-07T19:29:21Z</time>
      </trkpt>
      <trkpt lat="41.889980" lon="3.142860">
        <ele>37.108</ele>
        <time>2020-07-07T19:29:31Z</time>
      </trkpt>
      <trkpt lat="41.890470" lon="3.142990">
        <ele>36.698</ele>
        <time>2020-07-07T19:29:41Z</time>
      </trkpt>
      <trkpt lat="41.891570" lon="3.143100">
        <ele>39.315</ele>
        <time>2020-07-07T19:29:51Z</time>
      </trkpt>
      <trkpt lat="41.891790" lon="3.142920">
        <ele>39.866</ele>
        <time>2020-07-07T19:30:01Z</time>
      </trkpt>
      <trkpt lat="41.892170" lon="3.143360">
        <ele>41.277</ele>
        <time>2020-07-07T19:30:11Z</time>
      </trkpt>
      <trkpt lat="41.892870" lon="3.143540">
        <ele>41.260</ele>
        <time>2020-07-07T19:30:21Z</time>
      </trkpt>
      <trkpt lat="41.894440" lon="3.143070">
        <ele>45.062</ele>
        <time>2020-07-07T19:30:31Z</time>
      </trkpt>
      <trkpt lat="41.895760" lon="3.143080">
        <ele>44.350</ele>
        <time>2020-07-07T19:30:41Z</time>
      </trkpt>
      <trkpt lat="41.895640" lon="3.141790">
        <ele>44.368</ele>
        <time>2020-07-07T19:30:51Z</time>
      </trkpt>
      <trkpt lat="41.896290" lon="3.140590">
        <ele>47.029</ele>
        <time>2020-07-07T19:31:01Z</time>
      </trkpt>
      <trkpt lat="41.897470" lon="3.139950">
        <ele>54.100</ele>
        <time>2020-07-07T19:31:11Z</time>
      </trkpt>
      <trkpt lat="41.898040" lon="3.139050">
        <ele>58.920</ele>
        <time>2020-07-07T19:31:21Z</time>
      </trkpt>
      <trkpt lat="41.898510" lon="3.138840">
        <ele>63.908</ele>
        <time>2020-07-07T19:31:31Z</time>
      </trkpt>
      <trkpt lat="41.899050" lon="3.139100">
        <ele>69.047</ele>
        <time>2020-07-07T19:31:41Z</time>
      </trkpt>
      <trkpt lat="41.899920" lon="3.139930">
        <ele>74.624</ele>
        <time>2020-07-07T19:31:51Z</time>
      </trkpt>
      <trkpt lat="41.900600" lon="3.140170">
        <ele>84.945</ele>
        <time>2020-07-07T19:32:01Z</time>
      </trkpt>
      <trkpt lat="41.901780" lon="3.141670">
        <ele>92.616</ele>
        <time>2020-07-07T19:32:11Z</time>
      </trkpt>
      <trkpt lat="41.901610" lon="3.141140">
        <ele>98.759</ele>
        <time>2020-07-07T19:32:21Z</time>
      </trkpt>
      <trkpt lat="41.901690" lon="3.140660">
        <ele>105.471</ele>
        <time>2020-07-07T19:32:31Z</time>
      </trkpt>
      <trkpt lat="41.901490" lon="3.138940">
        <ele>119.079</ele>
        <time>2020-07-07T19:32:41Z</time>
      </trkpt>
      <trkpt lat="41.902050" lon="3.138520">
        <ele>123.967</ele>
        <time>2020-07-07T19:32:51Z</time>
      </trkpt>
      <trkpt lat="41.902660" lon="3.138380">
        <ele>137.933</ele>
        <time>2020-07-07T19:33:01Z</time>
      </trkpt>
      <trkpt lat="41.903120" lon="3.137770">
        <ele>145.223</ele>
        <time>2020-07-07T19:33:11Z</time>
      </trkpt>
      <trkpt lat="41.903360" lon="3.137130">
        <ele>152.715</ele>
        <time>2020-07-07T19:33:21Z</time>
      </trkpt>
      <trkpt lat="41.903380" lon="3.136330">
        <ele>150.108</ele>
        <time>2020-07-07T19:33:31Z</time>
      </trkpt>
      <trkpt lat="41.903580" lon="3.135920">
        <ele>151.928</ele>
        <time>2020-07-07T19:33:41Z</time>
      </trkpt>
      <trkpt lat="41.904380" lon="3.135410">
        <ele>152.885</ele>
        <time>2020-07-07T19:33:51Z</time>
      </trkpt>
      <trkpt lat="41.905050" lon="3.135410">
        <ele>159.946</ele>
        <time>2020-07-07T19:34:01Z</time>
      </trkpt>
      <trkpt lat="41.905770" lon="3.132220">
        <ele>184.137</ele>
        <time>2020-07-07T19:34:11Z</time>
      </trkpt>
      <trkpt lat="41.906200" lon="3.132090">
        <ele>187.520</ele>
        <time>2020-07-07T19:34:21Z</time>
      </trkpt>
      <trkpt lat="41.907150" lon="3.131380">
        <ele>183.122</ele>
        <time>2020-07-07T19:34:31Z</time>
      </trkpt>
      <trkpt lat="41.907660" lon="3.131280">
        <ele>181.570</ele>
        <time>2020-07-07T19:34:41Z</time>
      </trkpt>
      <trkpt lat="41.908150" lon="3.131650">
        <ele>179.378</ele>
        <time>2020-07-07T19:34:51Z</time>
      </trkpt>
      <trkpt lat="41.909010" lon="3.132980">
        <ele>175.236</ele>
        <time>2020-07-07T19:35:01Z</time>
      </trkpt>
      <trkpt lat="41.909650" lon="3.132690">
        <ele>176.117</ele>
        <time>2020-07-07T19:35:11Z</time>
      </trkpt>
      <trkpt lat="41.910260" lon="3.132730">
        <ele>173.618</ele>
        <time>2020-07-07T19:35:21Z</time>
      </trkpt>
      <trkpt lat="41.910560" lon="3.132010">
        <ele>178.008</ele>
        <time>2020-07-07T19:35:31Z</time>
      </trkpt>
      <trkpt lat="41.910500" lon="3.132630">
        <ele>178.748</ele>
        <time>2020-07-07T19:35:41Z</time>
      </trkpt>
      <trkpt lat="41.911070" lon="3.133110">
        <ele>176.185</ele>
        <time>2020-07-07T19:35:51Z</time>
      </trkpt>
      <trkpt lat="41.911970" lon="3.133270">
        <ele>174.216</ele>
        <time>2020-07-07T19:36:01Z</time>
      </trkpt>
      <trkpt lat="41.913030" lon="3.133060">
        <ele>182.527</ele>
        <time>2020-07-07T19:36:11Z</time>
      </trkpt>
      <trkpt lat="41.913550" lon="3.133370">
        <ele>179.410</ele>
        <time>2020-07-07T19:36:21Z</time>
      </trkpt>
      <trkpt lat="41.914700" lon="3.133460">
        <ele>180.382</ele>
        <time>2020-07-07T19:36:31Z</time>
      </trkpt>
      <trkpt lat="41.914990" lon="3.133060">
        <ele>183.160</ele>
        <time>2020-07-07T19:36:41Z</time>
      </trkpt>
      <trkpt lat="41.914660" lon="3.132370">
        <ele>191.948</ele>
        <time>2020-07-07T19:36:51Z</time>
      </trkpt>
      <trkpt lat="41.914880" lon="3.132500">
        <ele>190.455</ele>
        <time>2020-07-07T19:37:01Z</time>
      </trkpt>
      <trkpt lat="41.915330" lon="3.133060">
        <ele>177.807</ele>
        <time>2020-07-07T19:37:11Z</time>
      </trkpt>
      <trkpt lat="41.915920" lon="3.135070">
        <ele>157.717</ele>
        <time>2020-07-07T19:37:21Z</time>
      </trkpt>
      <trkpt lat="41.916040" lon="3.135270">
        <ele>155.308</ele>
        <time>2020-07-07T19:37:31Z</time>
      </trkpt>
      <trkpt lat="41.916280" lon="3.135260">
        <ele>154.980</ele>
        <time>2020-07-07T19:37:41Z</time>
      </trkpt>
      <trkpt lat="41.916110" lon="3.135700">
        <ele>149.927</ele>
        <time>2020-07-07T19:37:51Z</time>
      </trkpt>
      <trkpt lat="41.916720" lon="3.136760">
        <ele>150.088</ele>
        <time>2020-07-07T19:38:01Z</time>
      </trkpt>
      <trkpt lat="41.916790" lon="3.139310">
        <ele>132.259</ele>
        <time>2020-07-07T19:38:11Z</time>
      </trkpt>
      <trkpt lat="41.917190" lon="3.139640">
        <ele>133.562</ele>
        <time>2020-07-07T19:38:21Z</time>
      </trkpt>
      <trkpt lat="41.917240" lon="3.140320">
        <ele>125.674</ele>
        <time>2020-07-07T19:38:31Z</time>
      </trkpt>
      <trkpt lat="41.918100" lon="3.140410">
        <ele>125.012</ele>
        <time>2020-07-07T19:38:41Z</time>
      </trkpt>
      <trkpt lat="41.919120" lon="3.140270">
        <ele>125.550</ele>
        <time>2020-07-07T19:38:51Z</time>
      </trkpt>
      <trkpt lat="41.919590" lon="3.139750">
        <ele>125.614</ele>
        <time>2020-07-07T19:39:01Z</time>
      </trkpt>
      <trkpt lat="41.920000" lon="3.138820">
        <ele>126.254</ele>
        <time>2020-07-07T19:39:11Z</time>
      </trkpt>
      <trkpt lat="41.919950" lon="3.140450">
        <ele>113.609</ele>
        <time>2020-07-07T19:39:21Z</time>
      </trkpt>
      <trkpt lat="41.920110" lon="3.140880">
        <ele>110.508</ele>
        <time>2020-07-07T19:39:31Z</time>
      </trkpt>
      <trkpt lat="41.920400" lon="3.140810">
        <ele>110.186</ele>
        <time>2020-07-07T19:39:41Z</time>
      </trkpt>
      <trkpt lat="41.921550" lon="3.139170">
        <ele>105.153</ele>
        <time>2020-07-07T19:39:51Z</time>
      </trkpt>
      <trkpt lat="41.921920" lon="3.138970">
        <ele>100.894</ele>
        <time>2020-07-07T19:40:01Z</time>
      </trkpt>
      <trkpt lat="41.922190" lon="3.138450">
        <ele>99.825</ele>
        <time>2020-07-07T19:40:11Z</time>
      </trkpt>
      <trkpt lat="41.922650" lon="3.138240">
        <ele>97.698</ele>
        <time>2020-07-07T19:40:21Z</time>
      </trkpt>
      <trkpt lat="41.923170" lon="3.137690">
        <ele>90.780</ele>
        <time>2020-07-07T19:40:31Z</time>
      </trkpt>
      <trkpt lat="41.923440" lon="3.137700">
        <ele>86.668</ele>
        <time>2020-07-07T19:40:41Z</time>
      </trkpt>
      <trkpt lat="41.923900" lon="3.138090">
        <ele>80.046</ele>
        <time>2020-07-07T19:40:51Z</time>
      </trkpt>
      <trkpt lat="41.924820" lon="3.138150">
        <ele>76.938</ele>
        <time>2020-07-07T19:41:01Z</time>
      </trkpt>
      <trkpt lat="41.925530" lon="3.137630">
        <ele>75.270</ele>
        <time>2020-07-07T19:41:11Z</time>
      </trkpt>
      <trkpt lat="41.926510" lon="3.137720">
        <ele>70.817</ele>
        <time>2020-07-07T19:41:21Z</time>
      </trkpt>
      <trkpt lat="41.926590" lon="3.137270">
        <ele>72.508</ele>
        <time>2020-07-07T19:41:31Z</time>
      </trkpt>
      <trkpt lat="41.926840" lon="3.137120">
        <ele>72.198</ele>
        <time>2020-07-07T19:41:41Z</time>
      </trkpt>
      <trkpt lat="41.928150" lon="3.136970">
        <ele>69.545</ele>
        <time>2020-07-07T19:41:51Z</time>
      </trkpt>
      <trkpt lat="41.927750" lon="3.135840">
        <ele>77.156</ele>
        <time>2020-07-07T19:42:01Z</time>
      </trkpt>
      <trkpt lat="41.927830" lon="3.135650">
        <ele>77.857</ele>
        <time>2020-07-07T19:42:11Z</time>
      </trkpt>
      <trkpt lat="41.928410" lon="3.135280">
        <ele>75.470</ele>
        <time>2020-07-07T19:42:21Z</time>
      </trkpt>
      <trkpt lat="41.928700" lon="3.134450">
        <ele>75.742</ele>
        <time>2020-07-07T19:42:31Z</time>
      </trkpt>
      <trkpt lat="41.928470" lon="3.133620">
        <ele>75.160</ele>
        <time>2020-07-07T19:42:41Z</time>
      </trkpt>
      <trkpt lat="41.927360" lon="3.132150">
        <ele>82.088</ele>
        <time>2020-07-07T19:42:51Z</time>
      </trkpt>
      <trkpt lat="41.927490" lon="3.131580">
        <ele>76.871</ele>
        <time>2020-07-07T19:43:01Z</time>
      </trkpt>
      <trkpt lat="41.927340" lon="3.131200">
        <ele>77.041</ele>
        <time>2020-07-07T19:43:11Z</time>
      </trkpt>
      <trkpt lat="41.927570" lon="3.130330">
        <ele>73.915</ele>
        <time>2020-07-07T19:43:21Z</time>
      </trkpt>
      <trkpt lat="41.927340" lon="3.130140">
        <ele>76.108</ele>
        <time>2020-07-07T19:43:31Z</time>
      </trkpt>
      <trkpt lat="41.926640" lon="3.129960">
        <ele>76.142</ele>
        <time>2020-07-07T19:43:41Z</time>
      </trkpt>
      <trkpt lat="41.925940" lon="3.129440">
        <ele>80.059</ele>
        <time>2020-07-07T19:43:51Z</time>
      </trkpt>
      <trkpt lat="41.926980" lon="3.129600">
        <ele>77.450</ele>
        <time>2020-07-07T19:44:01Z</time>
      </trkpt>
      <trkpt lat="41.927420" lon="3.129860">
        <ele>76.121</ele>
        <time>2020-07-07T19:44:11Z</time>
      </trkpt>
      <trkpt lat="41.927850" lon="3.129630">
        <ele>75.294</ele>
        <time>2020-07-07T19:44:21Z</time>
      </trkpt>
      <trkpt lat="41.928660" lon="3.131290">
        <ele>70.346</ele>
        <time>2020-07-07T19:44:31Z</time>
      </trkpt>
      <trkpt lat="41.928970" lon="3.131550">
        <ele>67.474</ele>
        <time>2020-07-07T19:44:41Z</time>
      </trkpt>
      <trkpt lat="41.929400" lon="3.131530">
        <ele>65.112</ele>
        <time>2020-07-07T19:44:51Z</time>
      </trkpt>
      <trkpt lat="41.930040" lon="3.132030">
        <ele>67.211</ele>
        <time>2020-07-07T19:45:01Z</time>
      </trkpt>
      <trkpt lat="41.930520" lon="3.131550">
        <ele>73.221</ele>
        <time>2020-07-07T19:45:11Z</time>
      </trkpt>
      <trkpt lat="41.930340" lon="3.130290">
        <ele>76.703</ele>
        <time>2020-07-07T19:45:21Z</time>
      </trkpt>
      <trkpt lat="41.930730" lon="3.129680">
        <ele>79.108</ele>
        <time>2020-07-07T19:45:31Z</time>
      </trkpt>
      <trkpt lat="41.930370" lon="3.128810">
        <ele>82.036</ele>
        <time>2020-07-07T19:45:41Z</time>
      </trkpt>
      <trkpt lat="41.930960" lon="3.127610">
        <ele>94.283</ele>
        <time>2020-07-07T19:45:51Z</time>
      </trkpt>
      <trkpt lat="41.930740" lon="3.127030">
        <ele>97.024</ele>
        <time>2020-07-07T19:46:01Z</time>
      </trkpt>
      <trkpt lat="41.930600" lon="3.124370">
        <ele>107.665</ele>
        <time>2020-07-07T19:46:11Z</time>
      </trkpt>
      <trkpt lat="41.929530" lon="3.124950">
        <ele>102.468</ele>
        <time>2020-07-07T19:46:21Z</time>
      </trkpt>
      <trkpt lat="41.929080" lon="3.124970">
        <ele>104.010</ele>
        <time>2020-07-07T19:46:31Z</time>
      </trkpt>
      <trkpt lat="41.927230" lon="3.124560">
        <ele>112.218</ele>
        <time>2020-07-07T19:46:41Z</time>
      </trkpt>
      <trkpt lat="41.926860" lon="3.124310">
        <ele>119.686</ele>
        <time>2020-07-07T19:46:51Z</time>
      </trkpt>
      <trkpt lat="41.925100" lon="3.124540">
        <ele>112.686</ele>
        <time>2020-07-07T19:47:01Z</time>
      </trkpt>
      <trkpt lat="41.924470" lon="3.124050">
        <ele>103.160</ele>
        <time>2020-07-07T19:47:11Z</time>
      </trkpt>
      <trkpt lat="41.924200" lon="3.123030">
        <ele>98.526</ele>
        <time>2020-07-07T19:47:21Z</time>
      </trkpt>
      <trkpt lat="41.924310" lon="3.122320">
        <ele>98.708</ele>
        <time>2020-07-07T19:47:31Z</time>
      </trkpt>
      <trkpt lat="41.924230" lon="3.121640">
        <ele>102.653</ele>
        <time>2020-07-07T19:47:41Z</time>
      </trkpt>
      <trkpt lat="41.924500" lon="3.120910">
        <ele>102.860</ele>
        <time>2020-07-07T19:47:51Z</time>
      </trkpt>
      <trkpt lat="41.924350" lon="3.118490">
        <ele>113.221</ele>
        <time>2020-07-07T19:48:01Z</time>
      </trkpt>
      <trkpt lat="41.924610" lon="3.117530">
        <ele>118.562</ele>
        <time>2020-07-07T19:48:11Z</time>
      </trkpt>
      <trkpt lat="41.924660" lon="3.116660">
        <ele>123.295</ele>
        <time>2020-07-07T19:48:21Z</time>
      </trkpt>
      <trkpt lat="41.924250" lon="3.115750">
        <ele>137.147</ele>
        <time>2020-07-07T19:48:31Z</time>
      </trkpt>
      <trkpt lat="41.923720" lon="3.115280">
        <ele>147.835</ele>
        <time>2020-07-07T19:48:41Z</time>
      </trkpt>
      <trkpt lat="41.923120" lon="3.113900">
        <ele>163.023</ele>
        <time>2020-07-07T19:48:51Z</time>
      </trkpt>
      <trkpt lat="41.921030" lon="3.110970">
        <ele>192.966</ele>
        <time>2020-07-07T19:49:01Z</time>
      </trkpt>
      <trkpt lat="41.920740" lon="3.110300">
        <ele>197.429</ele>
        <time>2020-07-07T19:49:11Z</time>
      </trkpt>
      <trkpt lat="41.921130" lon="3.109310">
        <ele>203.621</ele>
        <time>2020-07-07T19:49:21Z</time>
      </trkpt>
      <trkpt lat="41.920600" lon="3.109700">
        <ele>206.708</ele>
        <time>2020-07-07T19:49:31Z</time>
      </trkpt>
      <trkpt lat="41.919720" lon="3.109270">
        <ele>222.731</ele>
        <time>2020-07-07T19:49:41Z</time>
      </trkpt>
      <trkpt lat="41.918390" lon="3.107780">
        <ele>245.658</ele>
        <time>2020-07-07T19:49:51Z</time>
      </trkpt>
      <trkpt lat="41.917830" lon="3.107590">
        <ele>251.249</ele>
        <time>2020-07-07T19:50:01Z</time>
      </trkpt>
      <trkpt lat="41.916860" lon="3.107840">
        <ele>262.210</ele>
        <time>2020-07-07T19:50:11Z</time>
      </trkpt>
      <trkpt lat="41.916380" lon="3.108210">
        <ele>264.593</ele>
        <time>2020-07-07T19:50:21Z</time>
      </trkpt>
      <trkpt lat="41.915990" lon="3.108100">
        <ele>268.035</ele>
        <time>2020-07-07T19:50:31Z</time>
      </trkpt>
      <trkpt lat="41.915440" lon="3.108660">
        <ele>269.423</ele>
        <time>2020-07-07T19:50:41Z</time>
      </trkpt>
      <trkpt lat="41.915100" lon="3.108220">
        <ele>272.861</ele>
        <time>2020-07-07T19:50:51Z</time>
      </trkpt>
      <trkpt lat="41.913870" lon="3.107800">
        <ele>281.654</ele>
        <time>2020-07-07T19:51:01Z</time>
      </trkpt>
      <trkpt lat="41.913680" lon="3.107050">
        <ele>279.256</ele>
        <time>2020-07-07T19:51:11Z</time>
      </trkpt>
      <trkpt lat="41.913500" lon="3.106870">
        <ele>277.311</ele>
        <time>2020-07-07T19:51:21Z</time>
      </trkpt>
      <trkpt lat="41.913000" lon="3.107270">
        <ele>280.108</ele>
        <time>2020-07-07T19:51:31Z</time>
      </trkpt>
      <trkpt lat="41.912030" lon="3.107260">
        <ele>273.460</ele>
        <time>2020-07-07T19:51:41Z</time>
      </trkpt>
      <trkpt lat="41.911470" lon="3.107630">
        <ele>266.857</ele>
        <time>2020-07-07T19:51:51Z</time>
      </trkpt>
      <trkpt lat="41.910460" lon="3.107820">
        <ele>259.988</ele>
        <time>2020-07-07T19:52:01Z</time>
      </trkpt>
      <trkpt lat="41.910270" lon="3.107630">
        <ele>260.179</ele>
        <time>2020-07-07T19:52:11Z</time>
      </trkpt>
      <trkpt lat="41.910340" lon="3.106450">
        <ele>261.012</ele>
        <time>2020-07-07T19:52:21Z</time>
      </trkpt>
      <trkpt lat="41.909910" lon="3.105720">
        <ele>258.254</ele>
        <time>2020-07-07T19:52:31Z</time>
      </trkpt>
      <trkpt lat="41.909600" lon="3.104750">
        <ele>261.492</ele>
        <time>2020-07-07T19:52:41Z</time>
      </trkpt>
      <trkpt lat="41.909110" lon="3.104990">
        <ele>263.930</ele>
        <time>2020-07-07T19:52:51Z</time>
      </trkpt>
      <trkpt lat="41.908340" lon="3.106120">
        <ele>268.149</ele>
        <time>2020-07-07T19:53:01Z</time>
      </trkpt>
      <trkpt lat="41.907900" lon="3.106050">
        <ele>269.402</ele>
        <time>2020-07-07T19:53:11Z</time>
      </trkpt>
      <trkpt lat="41.907110" lon="3.106290">
        <ele>268.922</ele>
        <time>2020-07-07T19:53:21Z</time>
      </trkpt>
      <trkpt lat="41.906350" lon="3.106220">
        <ele>268.308</ele>
        <time>2020-07-07T19:53:31Z</time>
      </trkpt>
      <trkpt lat="41.905030" lon="3.105320">
        <ele>275.549</ele>
        <time>2020-07-07T19:53:41Z</time>
      </trkpt>
      <trkpt lat="41.904590" lon="3.105340">
        <ele>273.696</ele>
        <time>2020-07-07T19:53:51Z</time>
      </trkpt>
      <trkpt lat="41.902970" lon="3.103800">
        <ele>273.537</ele>
        <time>2020-07-07T19:54:01Z</time>
      </trkpt>
      <trkpt lat="41.902610" lon="3.103210">
        <ele>272.428</ele>
        <time>2020-07-07T19:54:11Z</time>
      </trkpt>
      <trkpt lat="41.901740" lon="3.102300">
        <ele>275.871</ele>
        <time>2020-07-07T19:54:21Z</time>
      </trkpt>
      <trkpt lat="41.901660" lon="3.101850">
        <ele>274.763</ele>
        <time>2020-07-07T19:54:31Z</time>
      </trkpt>
      <trkpt lat="41.901380" lon="3.101500">
        <ele>273.451</ele>
        <time>2020-07-07T19:54:41Z</time>
      </trkpt>
      <trkpt lat="41.901210" lon="3.100700">
        <ele>274.179</ele>
        <time>2020-07-07T19:54:51Z</time>
      </trkpt>
      <trkpt lat="41.900520" lon="3.099720">
        <ele>282.049</ele>
        <time>2020-07-07T19:55:01Z</time>
      </trkpt>
      <trkpt lat="41.900080" lon="3.097870">
        <ele>291.102</ele>
        <time>2020-07-07T19:55:11Z</time>
      </trkpt>
      <trkpt lat="41.899380" lon="3.097260">
        <ele>294.422</ele>
        <time>2020-07-07T19:55:21Z</time>
      </trkpt>
      <trkpt lat="41.898400" lon="3.097080">
        <ele>298.808</ele>
        <time>2020-07-07T19:55:31Z</time>
      </trkpt>
      <trkpt lat="41.898200" lon="3.096820">
        <ele>301.469</ele>
        <time>2020-07-07T19:55:41Z</time>
      </trkpt>
      <trkpt lat="41.897660" lon="3.096560">
        <ele>304.926</ele>
        <time>2020-07-07T19:55:51Z</time>
      </trkpt>
      <trkpt lat="41.897010" lon="3.095810">
        <ele>310.877</ele>
        <time>2020-07-07T19:56:01Z</time>
      </trkpt>
      <trkpt lat="41.897080" lon="3.095360">
        <ele>309.848</ele>
        <time>2020-07-07T19:56:11Z</time>
      </trkpt>
      <trkpt lat="41.898740" lon="3.092640">
        <ele>301.691</ele>
        <time>2020-07-07T19:56:21Z</time>
      </trkpt>
      <trkpt lat="41.900100" lon="3.091640">
        <ele>290.553</ele>
        <time>2020-07-07T19:56:31Z</time>
      </trkpt>
      <trkpt lat="41.901230" lon="3.091290">
        <ele>286.451</ele>
        <time>2020-07-07T19:56:41Z</time>
      </trkpt>
      <trkpt lat="41.901610" lon="3.090490">
        <ele>281.819</ele>
        <time>2020-07-07T19:56:51Z</time>
      </trkpt>
      <trkpt lat="41.902050" lon="3.090050">
        <ele>281.888</ele>
        <time>2020-07-07T19:57:01Z</time>
      </trkpt>
      <trkpt lat="41.902850" lon="3.089970">
        <ele>281.124</ele>
        <time>2020-07-07T19:57:11Z</time>
      </trkpt>
      <trkpt lat="41.903260" lon="3.090400">
        <ele>277.026</ele>
        <time>2020-07-07T19:57:21Z</time>
      </trkpt>
      <trkpt lat="41.904160" lon="3.090890">
        <ele>271.508</ele>
        <time>2020-07-07T19:57:31Z</time>
      </trkpt>
      <trkpt lat="41.904840" lon="3.090710">
        <ele>265.793</ele>
        <time>2020-07-07T19:57:41Z</time>
      </trkpt>
      <trkpt lat="41.906280" lon="3.090870">
        <ele>251.980</ele>
        <time>2020-07-07T19:57:51Z</time>
      </trkpt>
      <trkpt lat="41.906020" lon="3.090090">
        <ele>252.431</ele>
        <time>2020-07-07T19:58:01Z</time>
      </trkpt>
      <trkpt lat="41.905640" lon="3.089760">
        <ele>256.332</ele>
        <time>2020-07-07T19:58:11Z</time>
      </trkpt>
      <trkpt lat="41.905920" lon="3.088650">
        <ele>247.635</ele>
        <time>2020-07-07T19:58:21Z</time>
      </trkpt>
      <trkpt lat="41.905880" lon="3.087320">
        <ele>248.847</ele>
        <time>2020-07-07T19:58:31Z</time>
      </trkpt>
      <trkpt lat="41.905740" lon="3.086990">
        <ele>247.935</ele>
        <time>2020-07-07T19:58:41Z</time>
      </trkpt>
      <trkpt lat="41.905980" lon="3.086320">
        <ele>246.133</ele>
        <time>2020-07-07T19:58:51Z</time>
      </trkpt>
      <trkpt lat="41.906640" lon="3.085800">
        <ele>247.431</ele>
        <time>2020-07-07T19:59:01Z</time>
      </trkpt>
      <trkpt lat="41.907100" lon="3.085670">
        <ele>250.161</ele>
        <time>2020-07-07T19:59:11Z</time>
      </trkpt>
      <trkpt lat="41.907710" lon="3.084590">
        <ele>248.307</ele>
        <time>2020-07-07T19:59:21Z</time>
      </trkpt>
      <trkpt lat="41.909180" lon="3.083700">
        <ele>234.708</ele>
        <time>2020-07-07T19:59:31Z</time>
      </trkpt>
      <trkpt lat="41.910730" lon="3.083660">
        <ele>236.618</ele>
        <time>2020-07-07T19:59:41Z</time>
      </trkpt>
      <trkpt lat="41.911240" lon="3.083800">
        <ele>231.915</ele>
        <time>2020-07-07T19:59:51Z</time>
      </trkpt>
      <trkpt lat="41.912260" lon="3.082910">
        <ele>221.736</ele>
        <time>2020-07-07T20:00:01Z</time>
      </trkpt>
      <trkpt lat="41.912550" lon="3.081940">
        <ele>217.067</ele>
        <time>2020-07-07T20:00:11Z</time>
      </trkpt>
      <trkpt lat="41.912610" lon="3.080460">
        <ele>212.730</ele>
        <time>2020-07-07T20:00:21Z</time>
      </trkpt>
      <trkpt lat="41.913310" lon="3.079900">
        <ele>205.292</ele>
        <time>2020-07-07T20:00:31Z</time>
      </trkpt>
      <trkpt lat="41.913470" lon="3.079230">
        <ele>201.130</ele>
        <time>2020-07-07T20:00:41Z</time>
      </trkpt>
      <trkpt lat="41.913660" lon="3.079480">
        <ele>195.248</ele>
        <time>2020-07-07T20:00:51Z</time>
      </trkpt>
      <trkpt lat="41.913950" lon="3.079550">
        <ele>187.512</ele>
        <time>2020-07-07T20:01:01Z</time>
      </trkpt>
      <trkpt lat="41.914130" lon="3.080070">
        <ele>180.232</ele>
        <time>2020-07-07T20:01:11Z</time>
      </trkpt>
      <trkpt lat="41.914230" lon="3.080030">
        <ele>176.605</ele>
        <time>2020-07-07T20:01:21Z</time>
      </trkpt>
      <trkpt lat="41.914450" lon="3.078650">
        <ele>165.008</ele>
        <time>2020-07-07T20:01:31Z</time>
      </trkpt>
      <trkpt lat="41.914620" lon="3.078570">
        <ele>163.656</ele>
        <time>2020-07-07T20:01:41Z</time>
      </trkpt>
      <trkpt lat="41.914780" lon="3.078750">
        <ele>165.243</ele>
        <time>2020-07-07T20:01:51Z</time>
      </trkpt>
      <trkpt lat="41.914880" lon="3.078660">
        <ele>166.444</ele>
        <time>2020-07-07T20:02:01Z</time>
      </trkpt>
      <trkpt lat="41.915160" lon="3.078210">
        <ele>168.525</ele>
        <time>2020-07-07T20:02:11Z</time>
      </trkpt>
      <trkpt lat="41.915310" lon="3.077500">
        <ele>170.338</ele>
        <time>2020-07-07T20:02:21Z</time>
      </trkpt>
      <trkpt lat="41.915030" lon="3.075840">
        <ele>161.340</ele>
        <time>2020-07-07T20:02:31Z</time>
      </trkpt>
      <trkpt lat="41.914340" lon="3.075430">
        <ele>154.878</ele>
        <time>2020-07-07T20:02:41Z</time>
      </trkpt>
      <trkpt lat="41.914200" lon="3.075010">
        <ele>153.186</ele>
        <time>2020-07-07T20:02:51Z</time>
      </trkpt>
      <trkpt lat="41.914500" lon="3.074450">
        <ele>153.015</ele>
        <time>2020-07-07T20:03:01Z</time>
      </trkpt>
      <trkpt lat="41.914950" lon="3.074150">
        <ele>151.065</ele>
        <time>2020-07-07T20:03:11Z</time>
      </trkpt>
      <trkpt lat="41.915200" lon="3.073570">
        <ele>151.711</ele>
        <time>2020-07-07T20:03:21Z</time>
      </trkpt>
      <trkpt lat="41.915270" lon="3.071840">
        <ele>146.208</ele>
        <time>2020-07-07T20:03:31Z</time>
      </trkpt>
      <trkpt lat="41.915880" lon="3.070750">
        <ele>154.376</ele>
        <time>2020-07-07T20:03:41Z</time>
      </trkpt>
      <trkpt lat="41.916660" lon="3.070460">
        <ele>149.813</ele>
        <time>2020-07-07T20:03:51Z</time>
      </trkpt>
      <trkpt lat="41.917080" lon="3.070090">
        <ele>151.114</ele>
        <time>2020-07-07T20:04:01Z</time>
      </trkpt>
      <trkpt lat="41.917580" lon="3.070020">
        <ele>147.315</ele>
        <time>2020-07-07T20:04:11Z</time>
      </trkpt>
      <trkpt lat="41.917940" lon="3.069460">
        <ele>142.968</ele>
        <time>2020-07-07T20:04:21Z</time>
      </trkpt>
      <trkpt lat="41.917510" lon="3.068760">
        <ele>148.030</ele>
        <time>2020-07-07T20:04:31Z</time>
      </trkpt>
      <trkpt lat="41.916750" lon="3.068240">
        <ele>144.638</ele>
        <time>2020-07-07T20:04:41Z</time>
      </trkpt>
      <trkpt lat="41.915890" lon="3.067950">
        <ele>153.336</ele>
        <time>2020-07-07T20:04:51Z</time>
      </trkpt>
      <trkpt lat="41.915010" lon="3.067450">
        <ele>155.531</ele>
        <time>2020-07-07T20:05:01Z</time>
      </trkpt>
      <trkpt lat="41.914110" lon="3.066610">
        <ele>159.261</ele>
        <time>2020-07-07T20:05:11Z</time>
      </trkpt>
      <trkpt lat="41.913590" lon="3.066540">
        <ele>160.307</ele>
        <time>2020-07-07T20:05:21Z</time>
      </trkpt>
      <trkpt lat="41.913150" lon="3.066750">
        <ele>164.508</ele>
        <time>2020-07-07T20:05:31Z</time>
      </trkpt>
      <trkpt lat="41.911430" lon="3.066310">
        <ele>170.348</ele>
        <time>2020-07-07T20:05:41Z</time>
      </trkpt>
      <trkpt lat="41.911100" lon="3.065310">
        <ele>174.975</ele>
        <time>2020-07-07T20:05:51Z</time>
      </trkpt>
      <trkpt lat="41.909890" lon="3.064910">
        <ele>184.266</ele>
        <time>2020-07-07T20:06:01Z</time>
      </trkpt>
      <trkpt lat="41.909510" lon="3.064570">
        <ele>186.887</ele>
        <time>2020-07-07T20:06:11Z</time>
      </trkpt>
      <trkpt lat="41.909060" lon="3.064820">
        <ele>183.060</ele>
        <time>2020-07-07T20:06:21Z</time>
      </trkpt>
      <trkpt lat="41.908850" lon="3.064750">
        <ele>183.482</ele>
        <time>2020-07-07T20:06:31Z</time>
      </trkpt>
      <trkpt lat="41.908740" lon="3.064470">
        <ele>186.450</ele>
        <time>2020-07-07T20:06:41Z</time>
      </trkpt>
      <trkpt lat="41.908290" lon="3.064650">
        <ele>191.518</ele>
        <time>2020-07-07T20:06:51Z</time>
      </trkpt>
      <trkpt lat="41.908080" lon="3.064530">
        <ele>194.453</ele>
        <time>2020-07-07T20:07:01Z</time>
      </trkpt>
      <trkpt lat="41.907870" lon="3.064700">
        <ele>191.504</ele>
        <time>2020-07-07T20:07:11Z</time>
      </trkpt>
      <trkpt lat="41.907660" lon="3.064560">
        <ele>197.014</ele>
        <time>2020-07-07T20:07:21Z</time>
      </trkpt>
      <trkpt lat="41.906630" lon="3.065100">
        <ele>196.308</ele>
        <time>2020-07-07T20:07:31Z</time>
      </trkpt>
      <trkpt lat="41.905650" lon="3.065130">
        <ele>201.380</ele>
        <time>2020-07-07T20:07:41Z</time>
      </trkpt>
      <trkpt lat="41.905460" lon="3.064980">
        <ele>203.637</ele>
        <time>2020-07-07T20:07:51Z</time>
      </trkpt>
      <trkpt lat="41.905520" lon="3.064500">
        <ele>209.528</ele>
        <time>2020-07-07T20:08:01Z</time>
      </trkpt>
      <trkpt lat="41.905420" lon="3.064350">
        <ele>212.039</ele>
        <time>2020-07-07T20:08:11Z</time>
      </trkpt>
      <trkpt lat="41.904980" lon="3.064810">
        <ele>209.032</ele>
        <time>2020-07-07T20:08:21Z</time>
      </trkpt>
      <trkpt lat="41.904490" lon="3.064830">
        <ele>213.394</ele>
        <time>2020-07-07T20:08:31Z</time>
      </trkpt>
      <trkpt lat="41.903710" lon="3.063950">
        <ele>226.892</ele>
        <time>2020-07-07T20:08:41Z</time>
      </trkpt>
      <trkpt lat="41.903530" lon="3.063190">
        <ele>228.560</ele>
        <time>2020-07-07T20:08:51Z</time>
      </trkpt>
      <trkpt lat="41.902930" lon="3.063600">
        <ele>231.052</ele>
        <time>2020-07-07T20:09:01Z</time>
      </trkpt>
      <trkpt lat="41.902910" lon="3.064360">
        <ele>231.953</ele>
        <time>2020-07-07T20:09:11Z</time>
      </trkpt>
      <trkpt lat="41.902310" lon="3.064990">
        <ele>233.708</ele>
        <time>2020-07-07T20:09:21Z</time>
      </trkpt>
      <trkpt lat="41.901630" lon="3.065340">
        <ele>240.108</ele>
        <time>2020-07-07T20:09:31Z</time>
      </trkpt>
      <trkpt lat="41.901330" lon="3.065350">
        <ele>244.480</ele>
        <time>2020-07-07T20:09:41Z</time>
      </trkpt>
      <trkpt lat="41.900980" lon="3.065950">
        <ele>250.557</ele>
        <time>2020-07-07T20:09:51Z</time>
      </trkpt>
      <trkpt lat="41.900790" lon="3.066870">
        <ele>257.658</ele>
        <time>2020-07-07T20:10:01Z</time>
      </trkpt>
      <trkpt lat="41.900590" lon="3.067150">
        <ele>257.059</ele>
        <time>2020-07-07T20:10:11Z</time>
      </trkpt>
      <trkpt lat="41.901040" lon="3.067470">
        <ele>264.322</ele>
        <time>2020-07-07T20:10:21Z</time>
      </trkpt>
      <trkpt lat="41.901260" lon="3.067870">
        <ele>266.924</ele>
        <time>2020-07-07T20:10:31Z</time>
      </trkpt>
      <trkpt lat="41.900500" lon="3.069570">
        <ele>254.752</ele>
        <time>2020-07-07T20:10:41Z</time>
      </trkpt>
      <trkpt lat="41.900540" lon="3.070510">
        <ele>259.430</ele>
        <time>2020-07-07T20:10:51Z</time>
      </trkpt>
      <trkpt lat="41.901200" lon="3.071000">
        <ele>265.064</ele>
        <time>2020-07-07T20:11:01Z</time>
      </trkpt>
      <trkpt lat="41.901350" lon="3.071600">
        <ele>268.906</ele>
        <time>2020-07-07T20:11:11Z</time>
      </trkpt>
      <trkpt lat="41.901240" lon="3.071770">
        <ele>269.016</ele>
        <time>2020-07-07T20:11:21Z</time>
      </trkpt>
      <trkpt lat="41.900630" lon="3.071830">
        <ele>272.308</ele>
        <time>2020-07-07T20:11:31Z</time>
      </trkpt>
      <trkpt lat="41.900140" lon="3.072230">
        <ele>268.041</ele>
        <time>2020-07-07T20:11:41Z</time>
      </trkpt>
      <trkpt lat="41.900060" lon="3.072580">
        <ele>266.488</ele>
        <time>2020-07-07T20:11:51Z</time>
      </trkpt>
      <trkpt lat="41.900440" lon="3.073310">
        <ele>267.259</ele>
        <time>2020-07-07T20:12:01Z</time>
      </trkpt>
      <trkpt lat="41.899890" lon="3.073730">
        <ele>265.770</ele>
        <time>2020-07-07T20:12:11Z</time>
      </trkpt>
      <trkpt lat="41.899820" lon="3.074010">
        <ele>263.633</ele>
        <time>2020-07-07T20:12:21Z</time>
      </trkpt>
      <trkpt lat="41.900330" lon="3.074740">
        <ele>270.015</ele>
        <time>2020-07-07T20:12:31Z</time>
      </trkpt>
      <trkpt lat="41.900730" lon="3.074690">
        <ele>267.313</ele>
        <time>2020-07-07T20:12:41Z</time>
      </trkpt>
      <trkpt lat="41.900940" lon="3.074870">
        <ele>269.281</ele>
        <time>2020-07-07T20:12:51Z</time>
      </trkpt>
      <trkpt lat="41.901330" lon="3.076620">
        <ele>273.355</ele>
        <time>2020-07-07T20:13:01Z</time>
      </trkpt>
      <trkpt lat="41.901070" lon="3.076830">
        <ele>275.707</ele>
        <time>2020-07-07T20:13:11Z</time>
      </trkpt>
      <trkpt lat="41.899810" lon="3.076790">
        <ele>270.817</ele>
        <time>2020-07-07T20:13:21Z</time>
      </trkpt>
      <trkpt lat="41.899400" lon="3.077800">
        <ele>266.608</ele>
        <time>2020-07-07T20:13:31Z</time>
      </trkpt>
      <trkpt lat="41.898790" lon="3.078290">
        <ele>267.180</ele>
        <time>2020-07-07T20:13:41Z</time>
      </trkpt>
      <trkpt lat="41.899000" lon="3.079500">
        <ele>262.017</ele>
        <time>2020-07-07T20:13:51Z</time>
      </trkpt>
      <trkpt lat="41.898940" lon="3.080510">
        <ele>261.738</ele>
        <time>2020-07-07T20:14:01Z</time>
      </trkpt>
      <trkpt lat="41.899190" lon="3.081390">
        <ele>269.489</ele>
        <time>2020-07-07T20:14:11Z</time>
      </trkpt>
      <trkpt lat="41.898610" lon="3.081570">
        <ele>275.942</ele>
        <time>2020-07-07T20:14:21Z</time>
      </trkpt>
      <trkpt lat="41.898240" lon="3.082090">
        <ele>275.484</ele>
        <time>2020-07-07T20:14:31Z</time>
      </trkpt>
      <trkpt lat="41.898020" lon="3.082930">
        <ele>283.422</ele>
        <time>2020-07-07T20:14:41Z</time>
      </trkpt>
      <trkpt lat="41.897530" lon="3.083460">
        <ele>285.630</ele>
        <time>2020-07-07T20:14:51Z</time>
      </trkpt>
      <trkpt lat="41.897320" lon="3.084610">
        <ele>292.641</ele>
        <time>2020-07-07T20:15:01Z</time>
      </trkpt>
      <trkpt lat="41.896990" lon="3.085200">
        <ele>291.081</ele>
        <time>2020-07-07T20:15:11Z</time>
      </trkpt>
      <trkpt lat="41.896230" lon="3.085600">
        <ele>284.709</ele>
        <time>2020-07-07T20:15:21Z</time>
      </trkpt>
      <trkpt lat="41.895870" lon="3.085970">
        <ele>286.608</ele>
        <time>2020-07-07T20:15:31Z</time>
      </trkpt>
      <trkpt lat="41.895710" lon="3.087000">
        <ele>287.489</ele>
        <time>2020-07-07T20:15:41Z</time>
      </trkpt>
      <trkpt lat="41.895300" lon="3.087250">
        <ele>288.066</ele>
        <time>2020-07-07T20:15:51Z</time>
      </trkpt>
      <trkpt lat="41.894900" lon="3.087940">
        <ele>285.427</ele>
        <time>2020-07-07T20:16:01Z</time>
      </trkpt>
      <trkpt lat="41.894800" lon="3.088830">
        <ele>282.458</ele>
        <time>2020-07-07T20:16:11Z</time>
      </trkpt>
      <trkpt lat="41.894220" lon="3.089890">
        <ele>292.471</ele>
        <time>2020-07-07T20:16:21Z</time>
      </trkpt>
      <trkpt lat="41.894200" lon="3.090900">
        <ele>302.823</ele>
        <time>2020-07-07T20:16:31Z</time>
      </trkpt>
      <trkpt lat="41.893820" lon="3.091130">
        <ele>300.291</ele>
        <time>2020-07-07T20:16:41Z</time>
      </trkpt>
      <trkpt lat="41.893590" lon="3.091520">
        <ele>300.819</ele>
        <time>2020-07-07T20:16:51Z</time>
      </trkpt>
      <trkpt lat="41.892070" lon="3.091430">
        <ele>286.815</ele>
        <time>2020-07-07T20:17:01Z</time>
      </trkpt>
      <trkpt lat="41.891790" lon="3.091250">
        <ele>283.865</ele>
        <time>2020-07-07T20:17:11Z</time>
      </trkpt>
      <trkpt lat="41.891080" lon="3.090160">
        <ele>292.611</ele>
        <time>2020-07-07T20:17:21Z</time>
      </trkpt>
      <trkpt lat="41.889970" lon="3.089670">
        <ele>312.908</ele>
        <time>2020-07-07T20:17:31Z</time>
      </trkpt>
      <trkpt lat="41.889700" lon="3.089830">
        <ele>322.516</ele>
        <time>2020-07-07T20:17:41Z</time>
      </trkpt>
      <trkpt lat="41.889160" lon="3.090600">
        <ele>338.933</ele>
        <time>2020-07-07T20:17:51Z</time>
      </trkpt>
      <trkpt lat="41.888180" lon="3.090550">
        <ele>347.984</ele>
        <time>2020-07-07T20:18:01Z</time>
      </trkpt>
      <trkpt lat="41.887700" lon="3.090700">
        <ele>349.095</ele>
        <time>2020-07-07T20:18:11Z</time>
      </trkpt>
      <trkpt lat="41.887340" lon="3.091290">
        <ele>354.658</ele>
        <time>2020-07-07T20:18:21Z</time>
      </trkpt>
      <trkpt lat="41.886470" lon="3.092010">
        <ele>353.460</ele>
        <time>2020-07-07T20:18:31Z</time>
      </trkpt>
      <trkpt lat="41.886160" lon="3.092040">
        <ele>352.328</ele>
        <time>2020-07-07T20:18:41Z</time>
      </trkpt>
      <trkpt lat="41.885700" lon="3.091680">
        <ele>348.556</ele>
        <time>2020-07-07T20:18:51Z</time>
      </trkpt>
      <trkpt lat="41.885350" lon="3.091590">
        <ele>345.164</ele>
        <time>2020-07-07T20:19:01Z</time>
      </trkpt>
      <trkpt lat="41.884090" lon="3.091820">
        <ele>329.006</ele>
        <time>2020-07-07T20:19:11Z</time>
      </trkpt>
      <trkpt lat="41.882970" lon="3.092560">
        <ele>313.216</ele>
        <time>2020-07-07T20:19:21Z</time>
      </trkpt>
      <trkpt lat="41.882620" lon="3.093110">
        <ele>309.208</ele>
        <time>2020-07-07T20:19:31Z</time>
      </trkpt>
      <trkpt lat="41.882080" lon="3.093600">
        <ele>301.681</ele>
        <time>2020-07-07T20:19:41Z</time>
      </trkpt>
      <trkpt lat="41.882220" lon="3.095250">
        <ele>280.578</ele>
        <time>2020-07-07T20:19:51Z</time>
      </trkpt>
      <trkpt lat="41.881990" lon="3.096290">
        <ele>267.469</ele>
        <time>2020-07-07T20:20:01Z</time>
      </trkpt>
      <trkpt lat="41.881320" lon="3.097450">
        <ele>248.580</ele>
        <time>2020-07-07T20:20:11Z</time>
      </trkpt>
      <trkpt lat="41.881130" lon="3.098540">
        <ele>239.433</ele>
        <time>2020-07-07T20:20:21Z</time>
      </trkpt>
      <trkpt lat="41.881200" lon="3.099460">
        <ele>227.155</ele>
        <time>2020-07-07T20:20:31Z</time>
      </trkpt>
      <trkpt lat="41.880690" lon="3.100450">
        <ele>215.913</ele>
        <time>2020-07-07T20:20:41Z</time>
      </trkpt>
      <trkpt lat="41.880580" lon="3.101120">
        <ele>208.191</ele>
        <time>2020-07-07T20:20:51Z</time>
      </trkpt>
      <trkpt lat="41.880260" lon="3.101160">
        <ele>208.434</ele>
        <time>2020-07-07T20:21:01Z</time>
      </trkpt>
      <trkpt lat="41.879970" lon="3.101510">
        <ele>204.155</ele>
        <time>2020-07-07T20:21:11Z</time>
      </trkpt>
      <trkpt lat="41.878990" lon="3.102120">
        <ele>184.210</ele>
        <time>2020-07-07T20:21:21Z</time>
      </trkpt>
      <trkpt lat="41.878760" lon="3.102140">
        <ele>180.108</ele>
        <time>2020-07-07T20:21:31Z</time>
      </trkpt>
      <trkpt lat="41.878460" lon="3.101750">
        <ele>182.368</ele>
        <time>2020-07-07T20:21:41Z</time>
      </trkpt>
      <trkpt lat="41.878000" lon="3.101760">
        <ele>173.875</ele>
        <time>2020-07-07T20:21:51Z</time>
      </trkpt>
      <trkpt lat="41.877800" lon="3.101070">
        <ele>173.066</ele>
        <time>2020-07-07T20:22:01Z</time>
      </trkpt>
      <trkpt lat="41.877490" lon="3.100700">
        <ele>163.667</ele>
        <time>2020-07-07T20:22:11Z</time>
      </trkpt>
      <trkpt lat="41.878010" lon="3.099420">
        <ele>160.420</ele>
        <time>2020-07-07T20:22:21Z</time>
      </trkpt>
      <trkpt lat="41.878310" lon="3.099140">
        <ele>164.192</ele>
        <time>2020-07-07T20:22:31Z</time>
      </trkpt>
      <trkpt lat="41.878540" lon="3.098050">
        <ele>154.440</ele>
        <time>2020-07-07T20:22:41Z</time>
      </trkpt>
      <trkpt lat="41.879000" lon="3.097460">
        <ele>165.948</ele>
        <time>2020-07-07T20:22:51Z</time>
      </trkpt>
      <trkpt lat="41.879020" lon="3.097230">
        <ele>167.824</ele>
        <time>2020-07-07T20:23:01Z</time>
      </trkpt>
      <trkpt lat="41.878000" lon="3.097300">
        <ele>150.004</ele>
        <time>2020-07-07T20:23:11Z</time>
      </trkpt>
      <trkpt lat="41.877190" lon="3.096310">
        <ele>152.714</ele>
        <time>2020-07-07T20:23:21Z</time>
      </trkpt>
      <trkpt lat="41.876970" lon="3.097870">
        <ele>139.608</ele>
        <time>2020-07-07T20:23:31Z</time>
      </trkpt>
      <trkpt lat="41.876320" lon="3.098610">
        <ele>128.067</ele>
        <time>2020-07-07T20:23:41Z</time>
      </trkpt>
      <trkpt lat="41.875890" lon="3.098750">
        <ele>122.384</ele>
        <time>2020-07-07T20:23:51Z</time>
      </trkpt>
      <trkpt lat="41.875540" lon="3.098520">
        <ele>119.975</ele>
        <time>2020-07-07T20:24:01Z</time>
      </trkpt>
      <trkpt lat="41.875270" lon="3.097950">
        <ele>120.326</ele>
        <time>2020-07-07T20:24:11Z</time>
      </trkpt>
      <trkpt lat="41.874840" lon="3.097720">
        <ele>112.139</ele>
        <time>2020-07-07T20:24:21Z</time>
      </trkpt>
      <trkpt lat="41.874330" lon="3.096830">
        <ele>110.681</ele>
        <time>2020-07-07T20:24:31Z</time>
      </trkpt>
      <trkpt lat="41.873410" lon="3.096860">
        <ele>105.229</ele>
        <time>2020-07-07T20:24:41Z</time>
      </trkpt>
      <trkpt lat="41.872720" lon="3.097270">
        <ele>96.457</ele>
        <time>2020-07-07T20:24:51Z</time>
      </trkpt>
      <trkpt lat="41.872200" lon="3.097220">
        <ele>88.634</ele>
        <time>2020-07-07T20:25:01Z</time>
      </trkpt>
      <trkpt lat="41.871930" lon="3.097010">
        <ele>86.455</ele>
        <time>2020-07-07T20:25:11Z</time>
      </trkpt>
      <trkpt lat="41.870930" lon="3.095520">
        <ele>82.110</ele>
        <time>2020-07-07T20:25:21Z</time>
      </trkpt>
      <trkpt lat="41.870520" lon="3.095230">
        <ele>73.408</ele>
        <time>2020-07-07T20:25:31Z</time>
      </trkpt>
      <trkpt lat="41.869400" lon="3.093580">
        <ele>62.288</ele>
        <time>2020-07-07T20:25:41Z</time>
      </trkpt>
      <trkpt lat="41.869100" lon="3.093460">
        <ele>60.935</ele>
        <time>2020-07-07T20:25:51Z</time>
      </trkpt>
      <trkpt lat="41.868920" lon="3.092940">
        <ele>59.216</ele>
        <time>2020-07-07T20:26:01Z</time>
      </trkpt>
      <trkpt lat="41.869060" lon="3.091050">
        <ele>65.697</ele>
        <time>2020-07-07T20:26:11Z</time>
      </trkpt>
      <trkpt lat="41.868260" lon="3.089970">
        <ele>59.470</ele>
        <time>2020-07-07T20:26:21Z</time>
      </trkpt>
      <trkpt lat="41.868180" lon="3.089910">
        <ele>58.672</ele>
        <time>2020-07-07T20:26:31Z</time>
      </trkpt>
      <trkpt lat="41.867560" lon="3.090540">
        <ele>50.810</ele>
        <time>2020-07-07T20:26:41Z</time>
      </trkpt>
      <trkpt lat="41.867380" lon="3.090000">
        <ele>52.388</ele>
        <time>2020-07-07T20:26:51Z</time>
      </trkpt>
      <trkpt lat="41.865770" lon="3.089430">
        <ele>40.783</ele>
        <time>2020-07-07T20:27:01Z</time>
      </trkpt>
      <trkpt lat="41.865530" lon="3.090020">
        <ele>40.925</ele>
        <time>2020-07-07T20:27:11Z</time>
      </trkpt>
      <trkpt lat="41.865130" lon="3.090190">
        <ele>39.017</ele>
        <time>2020-07-07T20:27:21Z</time>
      </trkpt>
      <trkpt lat="41.864760" lon="3.090630">
        <ele>36.108</ele>
        <time>2020-07-07T20:27:31Z</time>
      </trkpt>
      <trkpt lat="41.864440" lon="3.090730">
        <ele>36.073</ele>
        <time>2020-07-07T20:27:41Z</time>
      </trkpt>
      <trkpt lat="41.864370" lon="3.090740">
        <ele>35.769</ele>
        <time>2020-07-07T19:23:17Z</time>
      </trkpt>
      <trkpt lat="41.864130" lon="3.090820">
        <ele>34.704</ele>
        <time>2020-07-07T19:23:27Z</time>
      </trkpt>
      <trkpt lat="41.864600" lon="3.091000">
        <ele>35.724</ele>
        <time>2020-07-07T19:23:37Z</time>
      </trkpt>
      <trkpt lat="41.864730" lon="3.091200">
        <ele>35.708</ele>
        <time>2020-07-07T19:23:47Z</time>
      </trkpt>
      <trkpt lat="41.864410" lon="3.093460">
        <ele>43.811</ele>
        <time>2020-07-07T19:23:57Z</time>
      </trkpt>
      <trkpt lat="41.864680" lon="3.093150">
        <ele>48.718</ele>
        <time>2020-07-07T19:24:07Z</time>
      </trkpt>
      <trkpt lat="41.865560" lon="3.092940">
        <ele>61.699</ele>
        <time>2020-07-07T19:24:17Z</time>
      </trkpt>
      <trkpt lat="41.866020" lon="3.093080">
        <ele>70.260</ele>
        <time>2020-07-07T19:24:27Z</time>
      </trkpt>
      <trkpt lat="41.866500" lon="3.093660">
        <ele>77.384</ele>
        <time>2020-07-07T19:24:37Z</time>
      </trkpt>
      <trkpt lat="41.866680" lon="3.094650">
        <ele>92.076</ele>
        <time>2020-07-07T19:24:47Z</time>
      </trkpt>
      <trkpt lat="41.867140" lon="3.095290">
        <ele>98.666</ele>
        <time>2020-07-07T19:24:57Z</time>
      </trkpt>
      <trkpt lat="41.866960" lon="3.095310">
        <ele>100.333</ele>
        <time>2020-07-07T19:25:07Z</time>
      </trkpt>
      <trkpt lat="41.866300" lon="3.094910">
        <ele>96.481</ele>
        <time>2020-07-07T19:25:17Z</time>
      </trkpt>
      <trkpt lat="41.866550" lon="3.095470">
        <ele>99.561</ele>
        <time>2020-07-07T19:25:27Z</time>
      </trkpt>
      <trkpt lat="41.866770" lon="3.096730">
        <ele>102.617</ele>
        <time>2020-07-07T19:25:37Z</time>
      </trkpt>
      <trkpt lat="41.866990" lon="3.097140">
        <ele>103.108</ele>
        <time>2020-07-07T19:25:47Z</time>
      </trkpt>
      <trkpt lat="41.867360" lon="3.097300">
        <ele>107.723</ele>
        <time>2020-07-07T19:25:57Z</time>
      </trkpt>
      <trkpt lat="41.867660" lon="3.097820">
        <ele>110.280</ele>
        <time>2020-07-07T19:26:07Z</time>
      </trkpt>
      <trkpt lat="41.868040" lon="3.098990">
        <ele>115.461</ele>
        <time>2020-07-07T19:26:17Z</time>
      </trkpt>
      <trkpt lat="41.868010" lon="3.099650">
        <ele>112.822</ele>
        <time>2020-07-07T19:26:27Z</time>
      </trkpt>
      <trkpt lat="41.868560" lon="3.100470">
        <ele>117.856</ele>
        <time>2020-07-07T19:26:37Z</time>
      </trkpt>
      <trkpt lat="41.868680" lon="3.101420">
        <ele>112.598</ele>
        <time>2020-07-07T19:26:47Z</time>
      </trkpt>
      <trkpt lat="41.869830" lon="3.103190">
        <ele>132.818</ele>
        <time>2020-07-07T19:26:57Z</time>
      </trkpt>
      <trkpt lat="41.869900" lon="3.103820">
        <ele>140.775</ele>
        <time>2020-07-07T19:27:07Z</time>
      </trkpt>
      <trkpt lat="41.870350" lon="3.104460">
        <ele>138.279</ele>
        <time>2020-07-07T19:27:17Z</time>
      </trkpt>
      <trkpt lat="41.870810" lon="3.104810">
        <ele>138.305</ele>
        <time>2020-07-07T19:27:27Z</time>
      </trkpt>
      <trkpt lat="41.870930" lon="3.105500">
        <ele>132.225</ele>
        <time>2020-07-07T19:27:37Z</time>
      </trkpt>
      <trkpt lat="41.871080" lon="3.105600">
        <ele>130.508</ele>
        <time>2020-07-07T19:27:47Z</time>
      </trkpt>
      <trkpt lat="41.871450" lon="3.105500">
        <ele>131.092</ele>
        <time>2020-07-07T19:27:57Z</time>
      </trkpt>
      <trkpt lat="41.871830" lon="3.104570">
        <ele>139.169</ele>
        <time>2020-07-07T19:28:07Z</time>
      </trkpt>
      <trkpt lat="41.872150" lon="3.104340">
        <ele>138.980</ele>
        <time>2020-07-07T19:28:17Z</time>
      </trkpt>
      <trkpt lat="41.874610" lon="3.104230">
        <ele>151.841</ele>
        <time>2020-07-07T19:28:27Z</time>
      </trkpt>
      <trkpt lat="41.874430" lon="3.104670">
        <ele>147.495</ele>
        <time>2020-07-07T19:28:37Z</time>
      </trkpt>
      <trkpt lat="41.874890" lon="3.105120">
        <ele>142.527</ele>
        <time>2020-07-07T19:28:47Z</time>
      </trkpt>
      <trkpt lat="41.875050" lon="3.105490">
        <ele>138.697</ele>
        <time>2020-07-07T19:28:57Z</time>
      </trkpt>
      <trkpt lat="41.875200" lon="3.105320">
        <ele>139.364</ele>
        <time>2020-07-07T19:29:07Z</time>
      </trkpt>
      <trkpt lat="41.875460" lon="3.105320">
        <ele>137.548</ele>
        <time>2020-07-07T19:29:17Z</time>
      </trkpt>
      <trkpt lat="41.876250" lon="3.105770">
        <ele>129.461</ele>
        <time>2020-07-07T19:29:27Z</time>
      </trkpt>
      <trkpt lat="41.877370" lon="3.106630">
        <ele>118.117</ele>
        <time>2020-07-07T19:29:37Z</time>
      </trkpt>
      <trkpt lat="41.878290" lon="3.107740">
        <ele>110.608</ele>
        <time>2020-07-07T19:29:47Z</time>
      </trkpt>
      <trkpt lat="41.878430" lon="3.107640">
        <ele>110.659</ele>
        <time>2020-07-07T19:29:57Z</time>
      </trkpt>
      <trkpt lat="41.878340" lon="3.107300">
        <ele>115.196</ele>
        <time>2020-07-07T19:30:07Z</time>
      </trkpt>
      <trkpt lat="41.878590" lon="3.106660">
        <ele>121.317</ele>
        <time>2020-07-07T19:30:17Z</time>
      </trkpt>
      <trkpt lat="41.880430" lon="3.106970">
        <ele>119.838</ele>
        <time>2020-07-07T19:30:27Z</time>
      </trkpt>
      <trkpt lat="41.880860" lon="3.107540">
        <ele>109.522</ele>
        <time>2020-07-07T19:30:37Z</time>
      </trkpt>
      <trkpt lat="41.881620" lon="3.109230">
        <ele>92.754</ele>
        <time>2020-07-07T19:30:47Z</time>
      </trkpt>
      <trkpt lat="41.881060" lon="3.109670">
        <ele>85.734</ele>
        <time>2020-07-07T19:30:57Z</time>
      </trkpt>
      <trkpt lat="41.880500" lon="3.109490">
        <ele>88.051</ele>
        <time>2020-07-07T19:31:07Z</time>
      </trkpt>
      <trkpt lat="41.879730" lon="3.109660">
        <ele>87.293</ele>
        <time>2020-07-07T19:31:17Z</time>
      </trkpt>
      <trkpt lat="41.879370" lon="3.110590">
        <ele>76.165</ele>
        <time>2020-07-07T19:31:27Z</time>
      </trkpt>
      <trkpt lat="41.879620" lon="3.111350">
        <ele>72.221</ele>
        <time>2020-07-07T19:31:37Z</time>
      </trkpt>
      <trkpt lat="41.879530" lon="3.112450">
        <ele>67.908</ele>
        <time>2020-07-07T19:31:47Z</time>
      </trkpt>
      <trkpt lat="41.878740" lon="3.112500">
        <ele>64.544</ele>
        <time>2020-07-07T19:31:57Z</time>
      </trkpt>
      <trkpt lat="41.877910" lon="3.113730">
        <ele>61.181</ele>
        <time>2020-07-07T19:32:07Z</time>
      </trkpt>
      <trkpt lat="41.877800" lon="3.114570">
        <ele>60.712</ele>
        <time>2020-07-07T19:32:17Z</time>
      </trkpt>
      <trkpt lat="41.877340" lon="3.115420">
        <ele>60.643</ele>
        <time>2020-07-07T19:32:27Z</time>
      </trkpt>
      <trkpt lat="41.876770" lon="3.115650">
        <ele>56.917</ele>
        <time>2020-07-07T19:32:37Z</time>
      </trkpt>
      <trkpt lat="41.875500" lon="3.117390">
        <ele>48.799</ele>
        <time>2020-07-07T19:32:47Z</time>
      </trkpt>
      <trkpt lat="41.875200" lon="3.118460">
        <ele>46.079</ele>
        <time>2020-07-07T19:32:57Z</time>
      </trkpt>
      <trkpt lat="41.874070" lon="3.119190">
        <ele>44.716</ele>
        <time>2020-07-07T19:33:07Z</time>
      </trkpt>
      <trkpt lat="41.873910" lon="3.120010">
        <ele>43.184</ele>
        <time>2020-07-07T19:33:17Z</time>
      </trkpt>
      <trkpt lat="41.873470" lon="3.120140">
        <ele>39.707</ele>
        <time>2020-07-07T19:33:27Z</time>
      </trkpt>
      <trkpt lat="41.873290" lon="3.120570">
        <ele>40.017</ele>
        <time>2020-07-07T19:33:37Z</time>
      </trkpt>
      <trkpt lat="41.870590" lon="3.123940">
        <ele>26.508</ele>
        <time>2020-07-07T19:33:47Z</time>
      </trkpt>
      <trkpt lat="41.869260" lon="3.125320">
        <ele>22.023</ele>
        <time>2020-07-07T19:33:57Z</time>
      </trkpt>
      <trkpt lat="41.868590" lon="3.125740">
        <ele>18.610</ele>
        <time>2020-07-07T19:34:07Z</time>
      </trkpt>
      <trkpt lat="41.867450" lon="3.126110">
        <ele>18.871</ele>
        <time>2020-07-07T19:34:17Z</time>
      </trkpt>
      <trkpt lat="41.866460" lon="3.127190">
        <ele>18.752</ele>
        <time>2020-07-07T19:34:27Z</time>
      </trkpt>
      <trkpt lat="41.865720" lon="3.127740">
        <ele>15.476</ele>
        <time>2020-07-07T19:34:37Z</time>
      </trkpt>
      <trkpt lat="41.865500" lon="3.127640">
        <ele>14.428</ele>
        <time>2020-07-07T19:34:47Z</time>
      </trkpt>
      <trkpt lat="41.864440" lon="3.128680">
        <ele>13.758</ele>
        <time>2020-07-07T19:34:57Z</time>
      </trkpt>
      <trkpt lat="41.864750" lon="3.130160">
        <ele>11.545</ele>
        <time>2020-07-07T19:35:07Z</time>
      </trkpt>
      <trkpt lat="41.864770" lon="3.133000">
        <ele>7.853</ele>
        <time>2020-07-07T19:35:17Z</time>
      </trkpt>
      <trkpt lat="41.863880" lon="3.135840">
        <ele>14.104</ele>
        <time>2020-07-07T19:35:27Z</time>
      </trkpt>
      <trkpt lat="41.863680" lon="3.135890">
        <ele>16.314</ele>
        <time>2020-07-07T19:35:37Z</time>
      </trkpt>
      <trkpt lat="41.863730" lon="3.136160">
        <ele>16.308</ele>
        <time>2020-07-07T19:35:47Z</time>
      </trkpt>
      <trkpt lat="41.863570" lon="3.136450">
        <ele>17.710</ele>
        <time>2020-07-07T19:35:57Z</time>
      </trkpt>
    </trkseg>
  </trk>
</gpx>
